createdAt,value
2019-05-09T00:02:35.649Z,86.59
2019-05-09T00:05:07.355Z,86.77
2019-05-09T00:07:37.572Z,86.66
2019-05-09T00:10:08.096Z,86.67
2019-05-09T00:12:38.269Z,87.17
2019-05-09T00:15:08.729Z,87.24
2019-05-09T00:17:38.948Z,86.97
2019-05-09T00:20:19.429Z,87.44
2019-05-09T00:22:49.639Z,88.01
2019-05-09T00:25:19.957Z,88.40
2019-05-09T00:27:50.259Z,88.59
2019-05-09T00:30:39.534Z,89.17
2019-05-09T00:33:09.728Z,89.84
2019-05-09T00:35:40.866Z,90.19
2019-05-09T00:38:13.144Z,90.39
2019-05-09T00:40:55.276Z,90.50
2019-05-09T00:43:15.480Z,90.33
2019-05-09T00:46:04.636Z,90.16
2019-05-09T00:48:44.531Z,90.10
2019-05-09T00:51:16.415Z,89.83
2019-05-09T00:53:46.581Z,90.03
2019-05-09T00:56:16.953Z,89.78
2019-05-09T00:58:47.181Z,89.88
2019-05-09T01:01:17.457Z,89.70
2019-05-09T01:03:49.316Z,90.00
2019-05-09T01:06:19.444Z,89.95
2019-05-09T01:08:49.661Z,89.94
2019-05-09T01:11:21.120Z,90.14
2019-05-09T01:13:51.329Z,89.82
2019-05-09T01:16:23.893Z,90.04
2019-05-09T01:18:54.459Z,89.37
2019-05-09T01:21:24.900Z,89.53
2019-05-09T01:23:55.052Z,89.17
2019-05-09T01:26:25.154Z,89.38
2019-05-09T01:28:58.494Z,89.12
2019-05-09T01:31:28.670Z,88.85
2019-05-09T01:34:08.694Z,89.27
2019-05-09T01:37:14.043Z,89.04
2019-05-09T01:39:44.468Z,89.38
2019-05-09T01:42:14.628Z,89.51
2019-05-09T01:44:44.827Z,89.23
2019-05-09T01:47:14.895Z,89.31
2019-05-09T01:49:48.876Z,89.56
2019-05-09T01:52:20.652Z,89.74
2019-05-09T01:54:50.820Z,89.56
2019-05-09T01:57:23.115Z,89.58
2019-05-09T01:59:53.329Z,89.79
2019-05-09T02:02:23.592Z,90.23
2019-05-09T02:04:55.012Z,90.52
2019-05-09T02:07:25.142Z,90.67
2019-05-09T02:09:58.582Z,90.90
2019-05-09T02:12:31.083Z,91.09
2019-05-09T02:15:12.972Z,91.45
2019-05-09T02:18:02.831Z,91.69
2019-05-09T02:20:32.741Z,91.70
2019-05-09T02:23:03.657Z,91.65
2019-05-09T02:25:34.052Z,92.10
2019-05-09T02:28:04.218Z,91.84
2019-05-09T02:30:37.116Z,91.88
2019-05-09T02:33:07.278Z,92.39
2019-05-09T02:35:50.203Z,92.82
2019-05-09T02:38:09.677Z,92.66
2019-05-09T02:40:40.051Z,92.87
2019-05-09T02:43:10.393Z,92.96
2019-05-09T02:45:52.364Z,93.17
2019-05-09T02:48:19.186Z,93.01
2019-05-09T02:50:49.569Z,93.09
2019-05-09T02:53:19.661Z,93.28
2019-05-09T02:55:51.178Z,93.26
2019-05-09T02:58:22.956Z,93.62
2019-05-09T03:01:18.984Z,93.31
2019-05-09T03:03:49.334Z,93.43
2019-05-09T03:06:19.878Z,93.43
2019-05-09T03:08:50.082Z,93.45
2019-05-09T03:11:20.212Z,93.75
2019-05-09T03:13:50.372Z,93.72
2019-05-09T03:16:44.844Z,93.48
2019-05-09T03:19:14.877Z,93.67
2019-05-09T03:22:01.144Z,93.73
2019-05-09T03:24:31.422Z,93.91
2019-05-09T03:27:10.266Z,94.00
2019-05-09T03:29:44.717Z,93.83
2019-05-09T03:32:19.465Z,94.11
2019-05-09T03:34:48.726Z,93.82
2019-05-09T03:37:25.135Z,93.91
2019-05-09T03:39:55.277Z,94.39
2019-05-09T03:42:38.125Z,94.39
2019-05-09T03:44:58.070Z,94.54
2019-05-09T03:47:47.737Z,94.54
2019-05-09T03:50:18.234Z,94.65
2019-05-09T03:52:48.518Z,94.65
2019-05-09T03:55:28.798Z,94.64
2019-05-09T03:58:04.453Z,94.59
2019-05-09T04:00:34.696Z,94.79
2019-05-09T04:03:04.819Z,94.76
2019-05-09T04:05:34.942Z,94.83
2019-05-09T04:08:20.647Z,94.64
2019-05-09T04:10:52.399Z,94.46
2019-05-09T04:13:28.319Z,94.54
2019-05-09T04:16:00.366Z,94.46
2019-05-09T04:18:31.591Z,94.70
2019-05-09T04:21:02.316Z,94.64
2019-05-09T04:23:33.350Z,94.87
2019-05-09T04:26:27.585Z,94.76
2019-05-09T04:28:57.851Z,94.56
2019-05-09T04:31:30.306Z,94.84
2019-05-09T04:34:00.491Z,95.01
2019-05-09T04:36:39.668Z,94.97
2019-05-09T04:39:12.850Z,95.04
2019-05-09T04:41:43.529Z,94.79
2019-05-09T04:44:21.660Z,94.78
2019-05-09T04:46:54.236Z,94.78
2019-05-09T04:49:22.458Z,94.79
2019-05-09T04:51:53.713Z,94.65
2019-05-09T04:54:24.067Z,94.75
2019-05-09T04:56:57.424Z,94.65
2019-05-09T04:59:31.265Z,94.64
2019-05-09T05:02:18.281Z,94.57
2019-05-09T05:04:48.708Z,94.44
2019-05-09T05:07:22.876Z,94.32
2019-05-09T05:09:53.532Z,93.92
2019-05-09T05:12:24.783Z,94.10
2019-05-09T05:14:58.060Z,94.22
2019-05-09T05:17:30.763Z,93.98
2019-05-09T05:20:03.025Z,94.09
2019-05-09T05:22:42.143Z,93.79
2019-05-09T05:25:12.591Z,92.92
2019-05-09T05:27:42.757Z,93.09
2019-05-09T05:30:13.268Z,92.64
2019-05-09T05:33:08.180Z,92.65
2019-05-09T05:35:48.788Z,92.16
2019-05-09T05:38:19.025Z,92.03
2019-05-09T05:40:49.874Z,91.61
2019-05-09T05:43:20.417Z,91.80
2019-05-09T05:46:00.872Z,91.48
2019-05-09T05:48:32.323Z,91.59
2019-05-09T05:51:02.579Z,90.97
2019-05-09T05:53:32.790Z,91.24
2019-05-09T05:56:02.962Z,90.74
2019-05-09T05:58:33.266Z,90.09
2019-05-09T06:01:04.589Z,89.61
2019-05-09T06:03:37.647Z,89.37
2019-05-09T06:06:11.199Z,88.87
2019-05-09T06:08:41.295Z,88.66
2019-05-09T06:11:12.347Z,88.28
2019-05-09T06:13:54.377Z,87.82
2019-05-09T06:16:18.216Z,87.76
2019-05-09T06:18:48.052Z,87.72
2019-05-09T06:21:18.211Z,87.38
2019-05-09T06:23:48.378Z,86.86
2019-05-09T06:26:20.086Z,86.70
2019-05-09T06:28:50.216Z,86.71
2019-05-09T06:31:20.323Z,86.46
2019-05-09T06:33:53.557Z,85.74
2019-05-09T06:36:23.812Z,85.53
2019-05-09T06:38:53.972Z,85.64
2019-05-09T06:41:24.042Z,84.84
2019-05-09T06:44:13.615Z,84.65
2019-05-09T06:46:37.945Z,83.91
2019-05-09T06:49:24.291Z,83.89
2019-05-09T06:51:44.024Z,83.51
2019-05-09T06:54:14.235Z,83.22
2019-05-09T06:56:44.395Z,82.66
2019-05-09T06:59:14.575Z,82.53
2019-05-09T07:02:10.411Z,82.32
2019-05-09T07:04:44.134Z,82.02
2019-05-09T07:07:18.546Z,82.22
2019-05-09T07:09:59.912Z,82.93
2019-05-09T07:12:30.898Z,82.83
2019-05-09T07:15:01.007Z,81.91
2019-05-09T07:17:32.084Z,80.97
2019-05-09T07:20:02.492Z,81.28
2019-05-09T07:22:39.389Z,82.12
2019-05-09T07:25:18.581Z,81.66
2019-05-09T07:27:49.157Z,81.51
2019-05-09T07:30:29.053Z,80.67
2019-05-09T07:33:11.178Z,79.68
2019-05-09T07:35:41.322Z,79.43
2019-05-09T07:38:11.483Z,79.11
2019-05-09T07:40:41.641Z,79.92
2019-05-09T07:43:11.751Z,78.35
2019-05-09T07:46:00.848Z,77.22
2019-05-09T07:48:30.984Z,78.43
2019-05-09T07:51:01.146Z,77.83
2019-05-09T07:53:31.284Z,77.17
2019-05-09T07:56:01.580Z,76.91
2019-05-09T07:58:31.687Z,76.50
2019-05-09T08:01:01.861Z,75.60
2019-05-09T08:03:32.011Z,75.52
2019-05-09T08:06:02.173Z,76.26
2019-05-09T08:08:32.296Z,76.43
2019-05-09T08:11:03.412Z,74.11
2019-05-09T08:13:34.646Z,75.16
2019-05-09T08:16:04.928Z,74.87
2019-05-09T08:18:37.447Z,73.87
2019-05-09T08:21:08.484Z,73.63
2019-05-09T08:23:38.850Z,71.38
2019-05-09T08:26:09.105Z,71.37
2019-05-09T08:28:40.430Z,72.77
2019-05-09T08:31:10.523Z,70.65
2019-05-09T08:33:40.695Z,71.83
2019-05-09T08:36:10.917Z,71.07
2019-05-09T08:38:41.053Z,70.34
2019-05-09T08:41:13.948Z,69.08
2019-05-09T08:43:44.110Z,69.59
2019-05-09T08:46:15.049Z,70.83
2019-05-09T08:48:48.287Z,70.22
2019-05-09T08:51:49.370Z,69.34
2019-05-09T08:54:09.412Z,71.59
2019-05-09T08:56:39.709Z,70.22
2019-05-09T08:59:09.765Z,68.25
2019-05-09T09:01:54.049Z,68.38
2019-05-09T09:04:11.716Z,68.35
2019-05-09T09:06:41.907Z,68.50
2019-05-09T09:09:12.021Z,67.62
2019-05-09T09:11:42.217Z,68.17
2019-05-09T09:14:12.354Z,67.83
2019-05-09T09:16:42.453Z,65.96
2019-05-09T09:19:12.557Z,64.68
2019-05-09T09:21:42.661Z,63.47
2019-05-09T09:24:12.787Z,66.47
2019-05-09T09:26:43.034Z,65.13
2019-05-09T09:29:13.207Z,66.39
2019-05-09T09:31:43.349Z,65.50
2019-05-09T09:34:13.528Z,66.55
2019-05-09T09:36:43.671Z,65.91
2019-05-09T09:39:13.754Z,66.05
2019-05-09T09:41:43.925Z,65.30
2019-05-09T09:44:14.119Z,66.76
2019-05-09T09:46:45.327Z,65.03
2019-05-09T09:49:18.144Z,64.88
2019-05-09T09:51:48.526Z,63.80
2019-05-09T09:54:19.014Z,65.76
2019-05-09T09:56:49.994Z,64.99
2019-05-09T09:59:29.216Z,63.39
2019-05-09T10:01:59.659Z,63.57
2019-05-09T10:04:29.821Z,63.48
2019-05-09T10:07:00.062Z,63.25
2019-05-09T10:09:30.205Z,64.06
2019-05-09T10:12:00.848Z,61.79
2019-05-09T10:14:37.745Z,61.73
2019-05-09T10:17:28.134Z,60.55
2019-05-09T10:20:11.510Z,61.11
2019-05-09T10:22:46.213Z,60.18
2019-05-09T10:25:14.618Z,59.48
2019-05-09T10:27:47.876Z,62.37
2019-05-09T10:30:18.858Z,62.27
2019-05-09T10:32:49.112Z,63.14
2019-05-09T10:35:23.902Z,64.97
2019-05-09T10:37:54.989Z,66.62
2019-05-09T10:40:27.942Z,66.61
2019-05-09T10:43:34.738Z,66.71
2019-05-09T10:46:15.366Z,67.54
2019-05-09T10:48:47.924Z,68.08
2019-05-09T10:51:18.649Z,69.06
2019-05-09T10:53:50.422Z,69.51
2019-05-09T10:56:22.157Z,69.91
2019-05-09T10:58:52.343Z,68.44
2019-05-09T11:01:22.497Z,68.88
2019-05-09T11:03:52.710Z,68.88
2019-05-09T11:06:22.900Z,65.79
2019-05-09T11:08:53.165Z,64.17
2019-05-09T11:11:23.343Z,63.15
2019-05-09T11:13:53.457Z,61.99
2019-05-09T11:16:38.034Z,62.76
2019-05-09T11:18:55.414Z,60.52
2019-05-09T11:21:28.100Z,61.52
2019-05-09T11:23:58.320Z,60.45
2019-05-09T11:26:29.038Z,59.92
2019-05-09T11:28:59.177Z,60.58
2019-05-09T11:31:29.769Z,61.31
2019-05-09T11:34:01.029Z,60.64
2019-05-09T11:36:31.114Z,60.88
2019-05-09T11:39:01.329Z,62.36
2019-05-09T11:41:31.920Z,61.23
2019-05-09T11:44:02.115Z,61.12
2019-05-09T11:46:32.246Z,59.28
2019-05-09T11:49:02.382Z,59.97
2019-05-09T11:51:32.881Z,60.60
2019-05-09T11:54:03.026Z,61.08
2019-05-09T11:56:33.163Z,62.14
2019-05-09T11:59:03.435Z,61.67
2019-05-09T12:01:35.762Z,58.97
2019-05-09T12:04:08.037Z,58.62
2019-05-09T12:06:44.114Z,58.00
2019-05-09T12:09:18.282Z,58.96
2019-05-09T12:11:54.507Z,59.05
2019-05-09T12:14:31.743Z,59.90
2019-05-09T12:17:12.386Z,58.22
2019-05-09T12:20:10.617Z,58.82
2019-05-09T12:22:48.607Z,60.88
2019-05-09T12:25:28.535Z,59.60
2019-05-09T12:28:04.590Z,59.32
2019-05-09T12:30:34.722Z,60.01
2019-05-09T12:33:04.875Z,60.34
2019-05-09T12:35:38.531Z,60.26
2019-05-09T12:38:09.052Z,59.56
2019-05-09T12:40:39.674Z,59.09
2019-05-09T12:43:10.559Z,58.16
2019-05-09T12:45:41.498Z,59.28
2019-05-09T12:48:15.654Z,58.47
2019-05-09T12:50:44.413Z,58.24
2019-05-09T12:53:14.570Z,57.54
2019-05-09T12:55:44.752Z,56.73
2019-05-09T12:58:32.918Z,56.99
2019-05-09T13:01:07.480Z,56.61
2019-05-09T13:03:38.327Z,57.12
2019-05-09T13:06:08.526Z,56.31
2019-05-09T13:08:38.731Z,58.24
2019-05-09T13:11:09.935Z,56.80
2019-05-09T13:13:41.398Z,58.24
2019-05-09T13:16:48.764Z,57.02
2019-05-09T13:19:15.214Z,57.52
2019-05-09T13:21:45.345Z,57.43
2019-05-09T13:24:19.209Z,58.19
2019-05-09T13:26:49.559Z,56.92
2019-05-09T13:29:19.585Z,58.11
2019-05-09T13:31:50.023Z,56.92
2019-05-09T13:34:21.373Z,59.55
2019-05-09T13:36:51.609Z,59.03
2019-05-09T13:39:21.773Z,59.65
2019-05-09T13:41:53.474Z,60.94
2019-05-09T13:44:27.774Z,62.15
2019-05-09T13:46:58.524Z,60.88
2019-05-09T13:49:28.982Z,60.78
2019-05-09T13:52:04.651Z,61.10
2019-05-09T13:54:32.778Z,58.37
2019-05-09T13:57:02.999Z,60.91
2019-05-09T13:59:33.135Z,59.79
2019-05-09T14:02:03.423Z,60.80
2019-05-09T14:04:39.466Z,59.67
2019-05-09T14:07:09.500Z,58.58
2019-05-09T14:09:42.817Z,59.41
2019-05-09T14:12:13.018Z,60.83
2019-05-09T14:14:43.734Z,59.35
2019-05-09T14:17:14.218Z,59.50
2019-05-09T14:19:47.052Z,60.09
2019-05-09T14:22:20.139Z,59.60
2019-05-09T14:24:50.439Z,60.22
2019-05-09T14:27:22.299Z,59.43
2019-05-09T14:29:52.473Z,60.07
2019-05-09T14:32:22.650Z,58.68
2019-05-09T14:34:52.859Z,58.61
2019-05-09T14:37:23.006Z,57.37
2019-05-09T14:39:58.423Z,58.05
2019-05-09T14:42:25.153Z,57.74
2019-05-09T14:44:58.490Z,55.95
2019-05-09T14:47:28.931Z,57.57
2019-05-09T14:49:59.726Z,58.38
2019-05-09T14:52:30.021Z,58.59
2019-05-09T14:55:00.299Z,57.23
2019-05-09T14:57:31.390Z,58.31
2019-05-09T15:00:01.678Z,57.47
2019-05-09T15:02:31.854Z,58.50
2019-05-09T15:05:02.870Z,58.49
2019-05-09T15:07:33.820Z,59.74
2019-05-09T15:10:04.635Z,60.53
2019-05-09T15:12:39.039Z,58.57
2019-05-09T15:15:11.278Z,60.27
2019-05-09T15:17:41.618Z,59.84
2019-05-09T15:20:11.950Z,58.32
2019-05-09T15:22:42.278Z,58.58
2019-05-09T15:25:18.693Z,57.73
2019-05-09T15:27:48.718Z,56.37
2019-05-09T15:30:48.737Z,56.58
2019-05-09T15:33:49.161Z,54.51
2019-05-09T15:36:37.930Z,54.24
2019-05-09T15:39:23.188Z,53.73
2019-05-09T15:41:54.763Z,52.86
2019-05-09T15:44:26.627Z,54.81
2019-05-09T15:47:03.890Z,55.47
2019-05-09T15:49:38.380Z,55.17
2019-05-09T15:52:07.820Z,55.36
2019-05-09T15:54:38.759Z,56.46
2019-05-09T15:57:09.114Z,54.53
2019-05-09T15:59:39.344Z,56.32
2019-05-09T16:02:09.513Z,61.51
2019-05-09T16:04:40.315Z,60.30
2019-05-09T16:07:11.679Z,61.52
2019-05-09T16:09:41.782Z,61.32
2019-05-09T16:12:58.030Z,61.99
2019-05-09T16:19:00.148Z,58.13
2019-05-09T16:21:30.320Z,58.31
2019-05-09T16:24:00.446Z,58.86
2019-05-09T16:26:44.711Z,59.59
2019-05-09T16:29:38.340Z,60.72
2019-05-09T16:32:20.673Z,60.26
2019-05-09T16:34:51.043Z,60.39
2019-05-09T16:37:22.736Z,58.70
2019-05-09T16:39:52.834Z,59.55
2019-05-09T16:42:23.021Z,59.70
2019-05-09T16:44:53.105Z,64.14
2019-05-09T16:47:23.327Z,64.33
2019-05-09T16:49:53.448Z,60.37
2019-05-09T16:52:23.626Z,60.03
2019-05-09T16:55:03.961Z,60.95
2019-05-09T16:57:34.247Z,62.37
2019-05-09T17:00:04.979Z,62.72
2019-05-09T17:02:35.165Z,61.95
2019-05-09T17:05:05.461Z,62.83
2019-05-09T17:07:35.640Z,62.09
2019-05-09T17:10:58.421Z,63.58
2019-05-09T17:12:40.622Z,66.40
2019-05-09T17:15:10.834Z,65.41
2019-05-09T17:17:41.107Z,64.01
2019-05-09T17:20:13.158Z,63.86
2019-05-09T17:23:11.601Z,62.40
2019-05-09T17:25:34.612Z,63.49
2019-05-09T17:28:04.888Z,65.09
2019-05-09T17:30:38.396Z,64.32
2019-05-09T17:33:09.627Z,65.89
2019-05-09T17:35:39.737Z,62.39
2019-05-09T17:38:12.758Z,65.07
2019-05-09T17:40:42.853Z,66.05
2019-05-09T17:43:14.091Z,66.37
2019-05-09T17:45:44.183Z,65.64
2019-05-09T17:48:14.421Z,64.38
2019-05-09T17:50:44.622Z,64.75
2019-05-09T17:53:14.805Z,64.49
2019-05-09T17:55:47.901Z,62.96
2019-05-09T17:58:33.307Z,62.02
2019-05-09T18:01:02.200Z,65.62
2019-05-09T18:03:34.117Z,65.02
2019-05-09T18:06:04.515Z,70.61
2019-05-09T18:08:37.735Z,74.32
2019-05-09T18:11:09.158Z,75.52
2019-05-09T18:13:40.098Z,74.98
2019-05-09T18:16:10.384Z,77.02
2019-05-09T18:18:41.220Z,76.71
2019-05-09T18:21:11.498Z,76.11
2019-05-09T18:23:41.723Z,77.71
2019-05-09T18:26:12.127Z,76.41
2019-05-09T18:28:42.370Z,76.05
2019-05-09T18:31:14.104Z,77.03
2019-05-09T18:33:51.489Z,77.14
2019-05-09T18:36:21.683Z,79.03
2019-05-09T18:38:51.916Z,77.89
2019-05-09T18:41:22.162Z,77.51
2019-05-09T18:43:52.349Z,78.61
2019-05-09T18:46:22.555Z,78.49
2019-05-09T18:48:52.683Z,78.68
2019-05-09T18:51:22.853Z,79.34
2019-05-09T18:53:53.021Z,79.52
2019-05-09T18:56:23.234Z,79.28
2019-05-09T18:58:54.829Z,79.64
2019-05-09T19:01:24.938Z,80.01
2019-05-09T19:03:55.111Z,80.77
2019-05-09T19:06:25.035Z,80.21
2019-05-09T19:08:55.230Z,80.54
2019-05-09T19:11:27.014Z,80.82
2019-05-09T19:13:59.019Z,82.14
2019-05-09T19:16:57.077Z,81.53
2019-05-09T19:19:47.755Z,81.67
2019-05-09T19:22:22.448Z,82.57
2019-05-09T19:24:50.849Z,82.84
2019-05-09T19:27:21.149Z,82.72
2019-05-09T19:29:51.421Z,82.48
2019-05-09T19:32:21.553Z,82.44
2019-05-09T19:34:51.894Z,81.22
2019-05-09T19:37:24.986Z,82.18
2019-05-09T19:39:57.515Z,82.95
2019-05-09T19:42:31.453Z,82.58
2019-05-09T19:45:02.197Z,82.85
2019-05-09T19:47:32.521Z,82.07
2019-05-09T19:50:03.586Z,83.01
2019-05-09T19:52:42.909Z,83.21
2019-05-09T19:55:19.658Z,82.31
2019-05-09T19:57:56.358Z,82.34
2019-05-09T20:00:44.542Z,81.84
2019-05-09T20:03:20.078Z,81.48
2019-05-09T20:05:56.626Z,82.18
2019-05-09T20:08:34.282Z,82.50
2019-05-09T20:11:40.179Z,82.75
2019-05-09T20:14:21.341Z,82.55
2019-05-09T20:16:57.541Z,82.62
2019-05-09T20:19:31.526Z,82.68
2019-05-09T20:22:14.055Z,83.27
2019-05-09T20:24:53.535Z,83.62
2019-05-09T20:27:28.221Z,83.23
2019-05-09T20:30:01.426Z,84.12
2019-05-09T20:33:07.337Z,83.93
2019-05-09T20:35:57.629Z,84.09
2019-05-09T20:38:34.246Z,83.35
2019-05-09T20:41:14.828Z,83.03
2019-05-09T20:44:01.284Z,83.24
2019-05-09T20:46:39.359Z,84.85
2019-05-09T20:49:13.988Z,84.72
2019-05-09T20:52:00.992Z,84.81
2019-05-09T20:54:39.570Z,84.70
2019-05-09T20:57:15.049Z,84.94
2019-05-09T20:59:55.799Z,85.26
2019-05-09T21:02:23.908Z,85.24
2019-05-09T21:04:58.373Z,85.31
2019-05-09T21:07:29.144Z,85.39
2019-05-09T21:10:01.777Z,85.87
2019-05-09T21:15:24.573Z,84.49
2019-05-09T21:17:55.435Z,85.67
2019-05-09T21:20:30.115Z,85.23
2019-05-09T21:23:02.977Z,85.30
2019-05-09T21:25:49.393Z,84.44
2019-05-09T21:28:26.890Z,84.79
2019-05-09T21:31:09.471Z,84.86
2019-05-09T21:33:42.471Z,85.67
2019-05-09T21:36:13.444Z,86.02
2019-05-09T21:38:46.393Z,86.15
2019-05-09T21:41:23.979Z,86.59
2019-05-09T21:43:57.594Z,85.86
2019-05-09T21:46:32.456Z,86.28
2019-05-09T21:49:04.131Z,87.31
2019-05-09T21:51:37.249Z,86.70
2019-05-09T21:54:07.610Z,86.53
2019-05-09T21:56:37.851Z,86.49
2019-05-09T21:59:08.693Z,86.91
2019-05-09T22:01:38.931Z,86.08
2019-05-09T22:04:09.260Z,85.76
2019-05-09T22:06:39.464Z,86.49
2019-05-09T22:09:11.670Z,86.74
2019-05-09T22:11:41.811Z,87.26
2019-05-09T22:14:12.779Z,86.32
2019-05-09T22:16:43.825Z,87.64
2019-05-09T22:19:14.935Z,87.50
2019-05-09T22:21:45.152Z,88.67
2019-05-09T22:24:16.328Z,88.49
2019-05-09T22:26:46.786Z,88.62
2019-05-09T22:29:17.095Z,90.85
2019-05-09T22:31:48.894Z,89.50
2019-05-09T22:34:19.739Z,90.55
2019-05-09T22:36:51.661Z,90.32
2019-05-09T22:39:22.016Z,90.91
2019-05-09T22:41:52.555Z,90.19
2019-05-09T22:44:24.563Z,90.50
2019-05-09T22:46:57.259Z,90.43
2019-05-09T22:49:30.663Z,89.61
2019-05-09T22:52:04.420Z,89.14
2019-05-09T22:54:38.566Z,89.98
2019-05-09T22:57:10.098Z,89.51
2019-05-09T22:59:41.687Z,89.10
2019-05-09T23:02:14.292Z,87.83
2019-05-09T23:04:55.247Z,89.87
2019-05-09T23:07:28.601Z,90.54
2019-05-09T23:10:03.374Z,90.66
2019-05-09T23:12:35.885Z,89.92
2019-05-09T23:15:13.764Z,89.97
2019-05-09T23:17:46.178Z,89.82
2019-05-09T23:20:35.846Z,89.59
2019-05-09T23:23:29.876Z,89.79
2019-05-09T23:26:03.176Z,89.97
2019-05-09T23:28:33.755Z,89.92
2019-05-09T23:31:13.732Z,90.48
2019-05-09T23:33:54.984Z,90.48
2019-05-09T23:36:29.864Z,89.73
2019-05-09T23:39:15.716Z,90.82
2019-05-09T23:41:49.703Z,90.58
2019-05-09T23:44:29.430Z,89.36
2019-05-09T23:47:08.454Z,90.91
2019-05-09T23:49:42.584Z,90.96
2019-05-09T23:52:14.570Z,91.53
2019-05-09T23:55:02.753Z,91.44
2019-05-09T23:57:55.560Z,91.36
